Time;durP1;ratioP1;P1;durP2;ratioP2;P2;SDS_P1;SDS_P2;PMS_P1;PMS_P2;Temp;Humidity;BMP_temperature;BMP_pressure;BME280_temperature;BME280_humidity;BME280_pressure;Samples;Min_cycle;Max_cycle;Signal;HPM_P1;HPM_P2
2021/08/05 00:01:19;;;;;;;9.55;3.75;;;;;;;12.38;100.00;93480.59;5074907;28;20203;-81
2021/08/05 00:03:46;;;;;;;9.93;4.00;;;;;;;12.38;100.00;93485.81;5074505;28;20566;-80
2021/08/05 00:06:13;;;;;;;5.63;3.67;;;;;;;12.34;100.00;93487.31;5074718;28;20199;-81
2021/08/05 00:08:41;;;;;;;7.03;3.22;;;;;;;12.35;100.00;93480.25;5074710;28;20202;-80
2021/08/05 00:11:07;;;;;;;9.80;3.70;;;;;;;12.31;100.00;93479.88;5074837;28;20199;-82
2021/08/05 00:13:34;;;;;;;10.23;3.83;;;;;;;12.31;100.00;93482.50;5074661;28;20222;-82
2021/08/05 00:16:00;;;;;;;8.32;4.32;;;;;;;12.30;100.00;93482.72;5074607;28;20205;-81
2021/08/05 00:18:26;;;;;;;8.95;4.20;;;;;;;12.28;100.00;93492.59;5074608;28;20661;-81
2021/08/05 00:20:53;;;;;;;7.13;3.97;;;;;;;12.25;100.00;93479.94;5074222;28;20210;-81
2021/08/05 00:23:19;;;;;;;4.77;3.30;;;;;;;12.21;100.00;93490.06;5074633;28;20236;-82
2021/08/05 00:25:47;;;;;;;12.48;3.83;;;;;;;12.21;100.00;93498.69;5074251;28;20203;-83
2021/08/05 00:28:13;;;;;;;7.40;3.90;;;;;;;12.21;100.00;93493.47;5074406;28;20205;-81
2021/08/05 00:30:40;;;;;;;5.77;3.53;;;;;;;12.21;100.00;93490.06;5074458;28;20199;-81
2021/08/05 00:33:06;;;;;;;7.23;3.83;;;;;;;12.20;100.00;93494.47;5074506;28;20227;-81
2021/08/05 00:35:33;;;;;;;9.38;4.38;;;;;;;12.23;100.00;93495.06;5073958;28;20924;-80
2021/08/05 00:37:59;;;;;;;8.68;4.20;;;;;;;12.24;100.00;93489.63;5074006;28;20203;-81
2021/08/05 00:40:26;;;;;;;13.17;3.97;;;;;;;12.28;100.00;93495.22;5074066;28;20226;-81
2021/08/05 00:42:54;;;;;;;7.40;3.90;;;;;;;12.28;100.00;93496.00;5073767;28;20238;-81
2021/08/05 00:45:20;;;;;;;5.28;3.38;;;;;;;12.28;100.00;93487.38;5073856;28;20650;-82
2021/08/05 00:47:47;;;;;;;6.60;3.72;;;;;;;12.32;100.00;93485.91;5073089;28;20434;-82
2021/08/05 00:50:13;;;;;;;5.65;3.30;;;;;;;12.31;100.00;93484.31;5073584;28;20207;-80
2021/08/05 00:52:40;;;;;;;5.15;3.05;;;;;;;12.31;100.00;93479.09;5073942;28;20203;-81
2021/08/05 00:55:07;;;;;;;5.60;3.70;;;;;;;12.32;100.00;93485.91;5073822;28;20195;-81
2021/08/05 00:57:33;;;;;;;5.60;3.30;;;;;;;12.36;100.00;93479.22;5073300;28;20207;-81
2021/08/05 01:00:01;;;;;;;5.18;3.13;;;;;;;12.38;100.00;93477.19;5073546;28;20206;-81
2021/08/05 01:02:34;;;;;;;5.93;3.60;;;;;;;12.39;100.00;93476.19;5073877;28;20198;-82
2021/08/05 01:05:01;;;;;;;8.15;3.30;;;;;;;12.40;100.00;93472.53;5073797;28;20198;-82
2021/08/05 01:07:33;;;;;;;7.75;3.25;;;;;;;12.42;100.00;93475.72;5073692;28;20253;-81
2021/08/05 01:10:07;;;;;;;6.13;3.88;;;;;;;12.42;100.00;93475.72;5074222;28;20206;-82
2021/08/05 01:12:39;;;;;;;4.15;2.70;;;;;;;12.43;100.00;93472.09;5073554;28;20199;-80
2021/08/05 01:15:12;;;;;;;5.13;3.23;;;;;;;12.36;100.00;93476.63;5073352;28;20230;-81
2021/08/05 01:17:41;;;;;;;5.95;3.55;;;;;;;12.33;100.00;93469.19;5073610;28;20290;-82
2021/08/05 01:20:12;;;;;;;5.95;2.95;;;;;;;12.31;100.00;93466.00;5073298;28;20202;-81
2021/08/05 01:22:46;;;;;;;5.28;3.08;;;;;;;12.33;100.00;93469.19;5073326;28;20312;-81
2021/08/05 01:25:24;;;;;;;8.67;4.60;;;;;;;12.34;100.00;93468.97;5073568;28;20199;-81
2021/08/05 01:27:53;;;;;;;8.52;3.58;;;;;;;12.33;100.00;93464.75;5073548;28;20252;-83
2021/08/05 01:30:19;;;;;;;6.32;3.60;;;;;;;12.34;100.00;93468.16;5073176;28;20199;-81
2021/08/05 01:32:46;;;;;;;5.90;3.45;;;;;;;12.42;100.00;93475.72;5073460;28;20207;-81
2021/08/05 01:35:13;;;;;;;9.17;4.90;;;;;;;12.43;100.00;93472.09;5072916;28;20198;-81
2021/08/05 01:37:42;;;;;;;9.32;4.57;;;;;;;12.47;100.00;93470.63;5073121;28;20202;-80
2021/08/05 01:40:11;;;;;;;7.40;4.40;;;;;;;12.50;100.00;93467.56;5072831;28;20210;-80
2021/08/05 01:42:38;;;;;;;9.68;4.43;;;;;;;12.57;100.00;93470.09;5072834;28;20203;-81
2021/08/05 01:45:09;;;;;;;7.50;3.88;;;;;;;12.64;100.00;93462.16;5073303;28;20203;-81
2021/08/05 01:47:38;;;;;;;7.20;4.05;;;;;;;12.67;100.00;93467.75;5075565;28;20201;-81
2021/08/05 01:50:07;;;;;;;5.28;3.58;;;;;;;12.66;100.00;93466.19;5072867;28;20202;-80
2021/08/05 01:52:35;;;;;;;4.25;3.00;;;;;;;12.62;100.00;93464.22;5072876;28;20199;-81
2021/08/05 01:55:02;;;;;;;12.35;3.67;;;;;;;12.57;100.00;93465.69;5072830;28;20214;-81
2021/08/05 01:57:28;;;;;;;6.38;3.70;;;;;;;12.55;100.00;93459.84;5073037;28;20604;-81
2021/08/05 01:59:55;;;;;;;4.32;3.22;;;;;;;12.53;100.00;93461.91;5072467;28;20199;-81
2021/08/05 02:02:23;;;;;;;6.07;4.00;;;;;;;12.64;100.00;93456.94;5071744;28;20441;-82
2021/08/05 02:05:02;;;;;;;5.95;3.28;;;;;;;12.69;100.00;93454.44;5073640;28;20231;-82
2021/08/05 02:07:33;;;;;;;5.05;3.28;;;;;;;12.72;100.00;93454.00;5073012;28;20202;-82
2021/08/05 02:10:03;;;;;;;6.45;3.60;;;;;;;12.79;100.00;93452.13;5073308;28;20634;-81
2021/08/05 02:12:36;;;;;;;10.07;4.40;;;;;;;12.83;100.00;93455.09;5072879;28;20281;-81
2021/08/05 02:15:04;;;;;;;6.72;4.35;;;;;;;12.84;100.00;93456.66;5072714;28;20210;-81
2021/08/05 02:17:34;;;;;;;13.95;5.05;;;;;;;12.86;100.00;93447.59;5072706;28;20657;-80
2021/08/05 02:20:01;;;;;;;9.45;4.30;;;;;;;12.84;100.00;93451.44;5072611;28;20649;-81
2021/08/05 02:22:28;;;;;;;6.93;3.88;;;;;;;12.83;100.00;93445.41;5072648;28;20206;-82
2021/08/05 02:24:54;;;;;;;8.65;4.22;;;;;;;12.79;100.00;93446.88;5072678;28;20227;-81
2021/08/05 02:27:21;;;;;;;7.47;4.72;;;;;;;12.74;100.00;93436.28;5072604;28;20195;-82
2021/08/05 02:29:48;;;;;;;7.13;4.50;;;;;;;12.72;100.00;93433.88;5072569;28;20195;-81
2021/08/05 02:32:15;;;;;;;8.35;5.10;;;;;;;12.70;100.00;93443.75;5072898;28;20202;-80
2021/08/05 02:34:43;;;;;;;8.93;4.03;;;;;;;12.73;100.00;93440.69;5072897;28;20209;-81
2021/08/05 02:37:10;;;;;;;7.60;3.85;;;;;;;12.69;100.00;93439.53;5072429;28;20203;-81
2021/08/05 02:39:36;;;;;;;6.97;4.05;;;;;;;12.70;100.00;93445.56;5072592;28;20206;-81
2021/08/05 02:42:05;;;;;;;8.95;4.60;;;;;;;12.71;100.00;93436.72;5072490;28;20198;-81
2021/08/05 02:44:32;;;;;;;7.13;4.68;;;;;;;12.71;100.00;93436.72;5072134;28;20306;-81
2021/08/05 02:47:00;;;;;;;6.32;3.78;;;;;;;12.71;100.00;93426.22;5072586;28;20676;-81
2021/08/05 02:49:28;;;;;;;8.98;4.68;;;;;;;12.72;100.00;93428.63;5072996;28;20207;-82
2021/08/05 02:51:57;;;;;;;5.88;3.70;;;;;;;12.73;100.00;93427.59;5072209;28;20657;-81
2021/08/05 02:54:25;;;;;;;6.85;4.20;;;;;;;12.73;100.00;93430.22;5072416;28;20203;-82
2021/08/05 02:56:52;;;;;;;7.55;4.30;;;;;;;12.70;100.00;93424.63;5072340;28;20645;-82
2021/08/05 02:59:19;;;;;;;10.90;4.05;;;;;;;12.66;100.00;93423.47;5072252;28;20203;-80
2021/08/05 03:01:46;;;;;;;8.50;4.47;;;;;;;12.63;100.00;93423.91;5072454;28;20202;-81
2021/08/05 03:04:12;;;;;;;4.95;3.38;;;;;;;12.54;100.00;93421.59;5073040;28;20704;-81
2021/08/05 03:06:41;;;;;;;6.63;3.78;;;;;;;12.46;100.00;93423.75;5072470;28;20195;-81
2021/08/05 03:09:09;;;;;;;10.15;3.70;;;;;;;12.38;100.00;93423.00;5072527;28;20214;-82
2021/08/05 03:11:35;;;;;;;6.53;3.60;;;;;;;12.31;100.00;93422.28;5074829;28;20285;-81
2021/08/05 03:14:01;;;;;;;8.30;3.50;;;;;;;12.27;100.00;93428.19;5075863;28;20206;-82
2021/08/05 03:16:28;;;;;;;6.82;3.75;;;;;;;12.22;100.00;93426.22;5076090;28;20203;-82
2021/08/05 03:18:54;;;;;;;7.90;4.25;;;;;;;12.16;100.00;93419.25;5076221;28;20538;-80
2021/08/05 03:21:21;;;;;;;8.33;3.90;;;;;;;12.14;100.00;93427.31;5076612;28;20203;-81
2021/08/05 03:23:48;;;;;;;6.93;3.27;;;;;;;12.14;100.00;93422.09;5076222;28;20222;-80
2021/08/05 03:26:16;;;;;;;8.13;3.67;;;;;;;12.11;100.00;93417.28;5076207;28;20199;-81
2021/08/05 03:28:42;;;;;;;13.93;3.47;;;;;;;12.08;100.00;93425.56;5076197;28;20209;-81
2021/08/05 03:31:09;;;;;;;10.98;3.80;;;;;;;12.08;100.00;93422.94;5076230;28;20206;-81
2021/08/05 03:33:35;;;;;;;4.83;3.23;;;;;;;12.09;100.00;93426.34;5076305;28;20206;-81
2021/08/05 03:36:02;;;;;;;5.10;3.27;;;;;;;12.14;100.00;93424.69;5076049;28;20199;-81
2021/08/05 03:38:28;;;;;;;6.67;4.00;;;;;;;12.18;100.00;93427.69;5086346;28;20206;-84
2021/08/05 03:40:55;;;;;;;12.33;3.40;;;;;;;12.17;100.00;93428.69;5076635;28;20210;-81
2021/08/05 03:43:25;;;;;;;7.90;3.80;;;;;;;12.16;100.00;93419.25;5075368;28;20238;-81
2021/08/05 03:45:51;;;;;;;11.50;4.20;;;;;;;12.15;100.00;93418.44;5075854;28;20293;-81
2021/08/05 03:48:18;;;;;;;9.57;3.57;;;;;;;12.17;100.00;93426.06;5075683;28;20210;-81
2021/08/05 03:50:44;;;;;;;6.07;3.40;;;;;;;12.15;100.00;93422.88;5082429;28;20233;-81
2021/08/05 03:53:11;;;;;;;8.57;3.70;;;;;;;12.16;100.00;93425.28;5078774;28;20198;-81
2021/08/05 03:55:37;;;;;;;7.33;3.80;;;;;;;12.17;100.00;93424.28;5075608;28;20206;-80
2021/08/05 03:58:06;;;;;;;11.63;3.97;;;;;;;12.15;100.00;93428.09;5076009;28;20298;-80
2021/08/05 04:00:34;;;;;;;10.33;3.67;;;;;;;12.12;100.00;93424.09;5076954;28;20787;-82
2021/08/05 04:03:01;;;;;;;4.97;3.70;;;;;;;12.13;100.00;93423.09;5077967;28;20203;-82
2021/08/05 04:05:27;;;;;;;10.57;4.57;;;;;;;12.06;100.00;93425.00;5077128;28;20230;-81
2021/08/05 04:07:54;;;;;;;9.53;3.87;;;;;;;12.05;100.00;93419.97;5075093;28;20286;-81
2021/08/05 04:10:20;;;;;;;10.37;3.43;;;;;;;12.04;100.00;93421.81;5075823;28;20294;-81
2021/08/05 04:12:47;;;;;;;6.90;3.80;;;;;;;12.09;100.00;93424.56;5076447;28;20214;-81
2021/08/05 04:15:13;;;;;;;8.88;4.57;;;;;;;12.09;100.00;93423.75;5075219;28;20360;-81
2021/08/05 04:17:41;;;;;;;9.60;4.70;;;;;;;12.11;100.00;93422.53;5075980;28;20198;-80
2021/08/05 04:20:10;;;;;;;9.60;3.93;;;;;;;12.15;100.00;93421.06;5075184;28;20209;-82
2021/08/05 04:22:37;;;;;;;5.37;3.77;;;;;;;12.16;100.00;93425.28;5074437;28;20207;-81
2021/08/05 04:25:04;;;;;;;7.50;4.10;;;;;;;12.18;100.00;93423.22;5075050;28;20235;-81
2021/08/05 04:27:31;;;;;;;7.67;3.80;;;;;;;12.21;100.00;93425.41;5075149;28;20665;-81
2021/08/05 04:29:59;;;;;;;10.13;4.30;;;;;;;12.18;100.00;93430.28;5074934;28;20199;-81
2021/08/05 04:32:26;;;;;;;11.63;4.13;;;;;;;12.20;100.00;93420.41;5074919;28;20199;-81
2021/08/05 04:34:54;;;;;;;7.13;3.80;;;;;;;12.25;100.00;93430.22;5074665;28;20203;-81
2021/08/05 04:37:20;;;;;;;6.38;3.67;;;;;;;12.31;100.00;93437.22;5074569;28;20205;-82
2021/08/05 04:39:47;;;;;;;6.77;3.67;;;;;;;12.36;100.00;93429.50;5075511;28;20226;-81
2021/08/05 04:42:13;;;;;;;7.30;3.57;;;;;;;12.31;100.00;93426.72;5074763;28;20202;-81
2021/08/05 04:44:40;;;;;;;6.28;4.05;;;;;;;12.30;100.00;93431.16;5074502;28;20333;-81
2021/08/05 04:47:07;;;;;;;6.03;3.63;;;;;;;12.32;100.00;93430.94;5075886;28;20222;-81
2021/08/05 04:49:33;;;;;;;6.30;3.60;;;;;;;12.36;100.00;93426.88;5074583;28;20298;-81
2021/08/05 04:52:01;;;;;;;8.30;3.22;;;;;;;12.34;100.00;93429.72;5074931;28;20224;-81
2021/08/05 04:54:28;;;;;;;7.35;4.22;;;;;;;12.34;100.00;93431.50;5074852;28;20207;-81
2021/08/05 04:56:54;;;;;;;6.67;4.10;;;;;;;12.34;100.00;93429.72;5074631;28;20210;-81
2021/08/05 04:59:21;;;;;;;8.70;3.80;;;;;;;12.31;100.00;93430.16;5075049;28;20198;-81
2021/08/05 05:01:47;;;;;;;10.13;4.03;;;;;;;12.38;100.00;93427.44;5073727;28;20294;-81
2021/08/05 05:04:14;;;;;;;7.00;4.20;;;;;;;12.43;100.00;93424.97;5073700;28;20688;-81
2021/08/05 05:06:41;;;;;;;9.30;4.17;;;;;;;12.47;100.00;93420.88;5073877;28;20205;-82
2021/08/05 05:09:08;;;;;;;11.40;4.17;;;;;;;12.52;100.00;93418.41;5073817;28;20300;-81
2021/08/05 05:11:35;;;;;;;7.40;3.93;;;;;;;12.52;100.00;93420.22;5073763;28;20194;-81
2021/08/05 05:14:01;;;;;;;10.52;3.55;;;;;;;12.57;100.00;93425.59;5074566;28;20207;-81
2021/08/05 05:16:28;;;;;;;7.32;3.67;;;;;;;12.70;100.00;93416.75;5074056;28;20206;-79
2021/08/05 05:18:55;;;;;;;8.60;3.97;;;;;;;12.78;100.00;93422.47;5073865;28;20205;-81
2021/08/05 05:21:21;;;;;;;7.45;3.90;;;;;;;12.86;100.00;93418.75;5073892;28;20649;-80
2021/08/05 05:23:48;;;;;;;6.83;3.93;;;;;;;12.88;100.00;93427.19;5073967;28;20203;-81
2021/08/05 05:26:16;;;;;;;7.35;3.72;;;;;;;12.93;100.00;93424.69;5073909;28;20199;-81
2021/08/05 05:28:43;;;;;;;8.70;4.00;;;;;;;13.14;100.00;93425.22;5075117;28;20205;-82
2021/08/05 05:31:09;;;;;;;5.50;3.25;;;;;;;13.13;100.00;93419.16;5073925;28;20199;-82
2021/08/05 05:33:36;;;;;;;5.65;3.30;;;;;;;13.45;100.00;93424.16;5074556;28;20210;-81
2021/08/05 05:36:03;;;;;;;6.95;3.38;;;;;;;13.63;100.00;93417.22;5073924;28;20297;-82
2021/08/05 05:38:32;;;;;;;4.65;3.00;;;;;;;13.76;100.00;93416.97;5074586;28;20198;-82
2021/08/05 05:40:59;;;;;;;8.93;3.97;;;;;;;13.83;100.00;93422.13;5074462;28;20260;-82
2021/08/05 05:43:26;;;;;;;7.45;3.75;;;;;;;13.96;100.00;93419.25;5083424;28;20235;-82
2021/08/05 05:45:56;;;;;;;9.05;3.97;;;;;;;14.06;100.00;93416.84;5075205;28;20233;-82
2021/08/05 05:48:22;;;;;;;7.47;3.90;;;;;;;14.19;100.00;93425.50;5076636;28;20525;-82
2021/08/05 05:50:49;;;;;;;4.70;3.20;;;;;;;14.16;100.00;93416.25;5079864;28;20209;-81
2021/08/05 05:53:16;;;;;;;6.45;3.72;;;;;;;14.13;100.00;93416.72;5079382;28;20214;-82
2021/08/05 05:55:42;;;;;;;4.80;2.75;;;;;;;14.27;100.00;93416.47;5073775;28;20642;-81
2021/08/05 05:58:09;;;;;;;4.93;2.92;;;;;;;14.51;100.00;93412.75;5076032;28;20695;-81
2021/08/05 06:00:37;;;;;;;5.75;3.38;;;;;;;14.68;100.00;93410.19;5077543;28;20688;-81
2021/08/05 06:03:05;;;;;;;7.57;3.65;;;;;;;14.77;100.00;93400.09;5076341;28;20225;-81
2021/08/05 06:05:32;;;;;;;8.55;3.45;;;;;;;14.88;100.00;93393.22;5073016;28;20226;-81
2021/08/05 06:07:59;;;;;;;10.48;2.97;;;;;;;15.14;100.00;93400.50;5073343;28;20577;-81
2021/08/05 06:10:27;;;;;;;8.60;3.38;;;;;;;15.39;100.00;93396.69;5073748;28;20195;-81
2021/08/05 06:12:56;;;;;;;6.88;3.53;;;;;;;15.56;100.00;93395.88;5076361;28;20207;-82
2021/08/05 06:15:23;;;;;;;5.80;3.30;;;;;;;15.36;100.00;93403.22;5075310;28;20661;-81
2021/08/05 06:17:51;;;;;;;7.00;3.13;;;;;;;15.30;100.00;93403.38;5073912;28;20225;-81
2021/08/05 06:20:19;;;;;;;6.93;2.83;;;;;;;15.34;100.00;93405.28;5072902;28;20774;-81
2021/08/05 06:22:47;;;;;;;5.05;2.92;;;;;;;15.44;100.00;93407.28;5073854;28;20199;-82
2021/08/05 06:25:14;;;;;;;9.90;3.45;;;;;;;15.30;100.00;93408.63;5075351;28;20267;-81
2021/08/05 06:27:41;;;;;;;6.03;3.17;;;;;;;15.60;100.00;93408.28;5074763;28;20199;-82
2021/08/05 06:30:10;;;;;;;8.18;2.70;;;;;;;16.00;100.00;93415.22;5075511;28;20226;-80
2021/08/05 06:32:37;;;;;;;4.75;2.63;;;;;;;15.88;100.00;93407.41;5076380;28;20557;-82
2021/08/05 06:35:05;;;;;;;5.22;2.38;;;;;;;16.46;100.00;93410.53;5074254;28;20198;-81
2021/08/05 06:37:32;;;;;;;4.53;2.80;;;;;;;16.51;100.00;93417.72;5075621;28;20199;-84
2021/08/05 06:39:59;;;;;;;3.38;2.30;;;;;;;16.79;100.00;93415.91;5078052;28;20662;-82
2021/08/05 06:42:28;;;;;;;3.90;2.42;;;;;;;16.86;100.00;93407.84;5074531;28;20260;-83
2021/08/05 06:44:54;;;;;;;5.22;2.63;;;;;;;17.20;100.00;93418.97;5077162;28;20508;-84
2021/08/05 06:47:21;;;;;;;4.30;2.20;;;;;;;16.72;100.00;93420.56;5078675;28;20561;-84
2021/08/05 06:49:47;;;;;;;5.13;2.60;;;;;;;16.00;100.00;93420.47;5077374;28;20424;-83
2021/08/05 06:52:15;;;;;;;3.65;2.35;;;;;;;15.99;100.00;93424.16;5078111;28;20206;-84
2021/08/05 06:54:42;;;;;;;5.35;2.72;;;;;;;16.28;100.00;93413.47;5077627;28;20224;-83
2021/08/05 06:57:08;;;;;;;3.92;2.25;;;;;;;16.39;100.00;93414.41;5076564;28;20202;-83
2021/08/05 06:59:35;;;;;;;3.85;2.15;;;;;;;16.46;100.00;93415.00;5076711;28;20688;-83
2021/08/05 07:02:01;;;;;;;4.32;2.47;;;;;;;16.38;100.00;93418.88;5076494;28;20542;-84
2021/08/05 07:04:30;;;;;;;5.38;2.30;;;;;;;16.64;100.00;93424.44;5077046;28;20222;-83
2021/08/05 07:06:57;;;;;;;3.55;2.03;;;;;;;17.18;100.00;93418.44;5076950;28;20264;-83
2021/08/05 07:09:25;;;;;;;2.67;2.08;;;;;;;17.28;100.00;93429.06;5076088;28;20203;-82
2021/08/05 07:11:51;;;;;;;4.45;2.25;;;;;;;17.32;100.00;93419.63;5077062;28;20203;-84
2021/08/05 07:14:18;;;;;;;3.58;1.75;;;;;;;17.61;100.00;93408.75;5076231;28;20683;-84
2021/08/05 07:16:45;;;;;;;5.57;1.88;;;;;;;18.03;100.00;93415.91;5076424;28;20199;-85
2021/08/05 07:19:20;;;;;;;4.95;2.88;;;;;;;17.75;100.00;93417.84;5076505;28;20207;-85
2021/08/05 07:21:46;;;;;;;3.75;2.00;;;;;;;17.97;100.00;93409.03;5076721;28;20198;-84
2021/08/05 07:24:13;;;;;;;4.75;1.80;;;;;;;17.84;100.00;93414.72;5077318;28;20565;-85
2021/08/05 07:26:42;;;;;;;4.25;2.03;;;;;;;17.75;100.00;93409.09;5076507;28;20202;-85
2021/08/05 07:29:08;;;;;;;3.20;1.90;;;;;;;18.12;100.00;93408.31;5075674;28;20450;-85
2021/08/05 07:31:35;;;;;;;2.65;1.67;;;;;;;17.61;100.00;93406.13;5076361;28;20225;-84
2021/08/05 07:34:08;;;;;;;4.28;1.90;;;;;;;17.53;100.00;93403.94;5075944;28;20260;-84
2021/08/05 07:36:34;;;;;;;3.30;1.52;;;;;;;17.61;100.00;93400.84;5076660;28;20209;-84
2021/08/05 07:39:01;;;;;;;2.50;1.65;;;;;;;17.81;100.00;93396.75;5076518;28;20207;-84
2021/08/05 07:41:27;;;;;;;3.03;1.90;;;;;;;17.78;100.00;93392.75;5076239;28;20206;-84
2021/08/05 07:43:55;;;;;;;3.17;1.70;;;;;;;17.51;100.00;93406.03;5080740;28;20273;-84
2021/08/05 07:46:22;;;;;;;3.17;2.20;;;;;;;17.56;100.00;93406.06;5081754;28;20230;-85
2021/08/05 07:48:48;;;;;;;4.63;2.20;;;;;;;17.16;100.00;93404.69;5077101;28;20221;-84
2021/08/05 07:51:15;;;;;;;3.28;1.50;;;;;;;17.16;100.00;93408.13;5075464;28;20206;-84
2021/08/05 07:53:41;;;;;;;3.85;1.70;;;;;;;17.67;100.00;93401.66;5075622;28;20654;-84
2021/08/05 07:56:08;;;;;;;1.50;1.30;;;;;;;17.68;100.00;93398.75;5075369;28;20195;-83
2021/08/05 07:58:34;;;;;;;3.20;1.55;;;;;;;17.90;100.00;93395.22;5077055;28;20207;-85
2021/08/05 08:01:02;;;;;;;2.40;1.33;;;;;;;18.12;100.00;93392.47;5077704;28;20573;-86
2021/08/05 08:03:29;;;;;;;3.13;1.38;;;;;;;17.88;100.00;93392.06;5075983;28;20561;-84
2021/08/05 08:05:55;;;;;;;3.33;1.50;;;;;;;17.65;100.00;93383.44;5075882;28;20230;-84
2021/08/05 08:08:22;;;;;;;2.38;1.60;;;;;;;17.36;100.00;93383.75;5075233;28;20206;-84
2021/08/05 08:10:48;;;;;;;2.58;1.45;;;;;;;17.11;100.00;93383.53;5075665;28;20203;-83
2021/08/05 08:13:15;;;;;;;2.42;1.35;;;;;;;17.23;100.00;93381.53;5075698;28;20547;-84
2021/08/05 08:15:41;;;;;;;2.20;1.50;;;;;;;17.15;100.00;93384.63;5075522;28;20557;-83
2021/08/05 08:18:10;;;;;;;2.88;1.38;;;;;;;17.38;100.00;93384.28;5065326;28;20654;-85
2021/08/05 08:20:37;;;;;;;2.22;1.40;;;;;;;17.69;100.00;93378.47;5054961;28;20199;-83
2021/08/05 08:23:04;;;;;;;3.10;1.55;;;;;;;17.81;100.00;93372.97;5066864;28;20260;-82
2021/08/05 08:25:31;;;;;;;2.05;1.40;;;;;;;18.72;100.00;93379.75;5052549;28;20227;-81
2021/08/05 08:27:57;;;;;;;2.10;1.33;;;;;;;18.28;98.07;93374.81;5053657;28;20229;-80
2021/08/05 08:30:25;;;;;;;1.90;1.35;;;;;;;18.54;100.00;93372.28;5052773;28;20221;-82
2021/08/05 08:32:52;;;;;;;1.35;1.20;;;;;;;18.25;99.51;93380.63;5054521;28;20204;-81
2021/08/05 08:35:20;;;;;;;1.95;1.10;;;;;;;18.15;96.78;93367.38;5054887;28;20199;-81
2021/08/05 08:37:46;;;;;;;2.55;1.20;;;;;;;18.15;93.03;93376.09;5054652;28;20648;-81
2021/08/05 08:40:15;;;;;;;1.70;1.05;;;;;;;18.25;95.01;93375.34;5054683;28;20672;-81
2021/08/05 08:42:43;;;;;;;2.97;1.20;;;;;;;18.68;100.00;93379.47;5054667;28;20211;-81
2021/08/05 08:45:10;;;;;;;2.25;1.27;;;;;;;18.67;93.15;93371.81;5054394;28;20555;-81
2021/08/05 08:47:39;;;;;;;1.48;0.90;;;;;;;18.51;98.38;93367.53;5054392;28;20214;-82
2021/08/05 08:50:07;;;;;;;2.75;1.08;;;;;;;18.84;100.00;93367.09;5073555;28;20194;-82
2021/08/05 08:52:38;;;;;;;1.30;1.10;;;;;;;18.77;100.00;93369.19;5074438;28;20581;-81
2021/08/05 08:55:06;;;;;;;1.92;1.38;;;;;;;19.13;100.00;93368.47;5073791;28;20198;-81
2021/08/05 08:57:35;;;;;;;3.05;1.00;;;;;;;19.47;95.83;93363.44;5073643;28;20199;-82
2021/08/05 09:00:05;;;;;;;3.97;1.20;;;;;;;19.47;93.64;93367.94;5073285;28;20793;-80
2021/08/05 09:02:32;;;;;;;0.98;0.80;;;;;;;18.64;89.83;93374.97;5073865;28;20195;-81
2021/08/05 09:04:59;;;;;;;2.83;0.90;;;;;;;18.49;91.96;93373.84;5073719;28;20210;-81
2021/08/05 09:07:26;;;;;;;2.50;1.00;;;;;;;18.37;92.29;93372.47;5073244;28;20202;-82
2021/08/05 09:09:54;;;;;;;2.42;1.20;;;;;;;18.21;93.61;93375.06;5073430;28;20658;-81
2021/08/05 09:12:21;;;;;;;2.20;1.20;;;;;;;18.13;96.67;93370.25;5073288;28;20305;-80
2021/08/05 09:14:49;;;;;;;2.63;1.00;;;;;;;18.21;96.85;93377.69;5073511;28;20561;-80
2021/08/05 09:17:18;;;;;;;3.10;1.27;;;;;;;18.25;99.37;93375.34;5073535;28;20210;-81
2021/08/05 09:19:45;;;;;;;3.05;1.50;;;;;;;17.94;100.00;93367.28;5073372;28;20198;-80
2021/08/05 09:22:11;;;;;;;1.73;1.23;;;;;;;18.20;100.00;93362.91;5064357;28;20646;-81
2021/08/05 09:24:38;;;;;;;3.60;1.25;;;;;;;18.21;99.26;93361.06;5053298;28;20562;-79
2021/08/05 09:27:06;;;;;;;1.73;1.10;;;;;;;18.27;99.01;93360.81;5052986;28;20559;-81
2021/08/05 09:29:44;;;;;;;1.02;0.95;;;;;;;18.17;95.89;93360.78;5053357;28;20242;-81
2021/08/05 09:32:11;;;;;;;1.23;0.80;;;;;;;18.46;96.81;93355.88;5053245;28;20612;-81
2021/08/05 09:34:40;;;;;;;1.10;0.85;;;;;;;18.73;91.67;93362.81;5053356;28;20195;-81
2021/08/05 09:37:08;;;;;;;1.30;1.10;;;;;;;19.82;90.91;93361.03;5052971;28;20633;-80
2021/08/05 09:39:37;;;;;;;2.03;0.95;;;;;;;20.27;88.81;93362.00;5053273;28;20199;-80
2021/08/05 09:42:07;;;;;;;0.65;0.60;;;;;;;20.17;90.54;93359.34;5053106;28;20207;-80
2021/08/05 09:44:45;;;;;;;1.08;0.80;;;;;;;20.84;81.14;93357.25;5052960;28;20586;-80
2021/08/05 09:47:13;;;;;;;1.05;0.80;;;;;;;21.07;83.39;93356.56;5052782;28;20227;-80
2021/08/05 09:49:52;;;;;;;1.13;0.80;;;;;;;21.49;78.63;93358.94;5052777;28;20547;-82
2021/08/05 09:52:26;;;;;;;1.23;0.88;;;;;;;21.52;81.98;93361.84;5053034;28;20269;-82
2021/08/05 09:54:53;;;;;;;0.80;0.80;;;;;;;22.04;80.63;93353.38;5053009;28;20194;-81
2021/08/05 09:57:25;;;;;;;1.33;0.98;;;;;;;22.21;73.03;93356.38;5052829;28;20207;-81
2021/08/05 09:59:54;;;;;;;3.78;0.80;;;;;;;22.03;75.58;93349.91;5052989;28;20211;-81
2021/08/05 10:02:25;;;;;;;1.30;0.80;;;;;;;21.27;80.14;93357.50;5052710;28;20613;-80
2021/08/05 10:04:52;;;;;;;0.60;0.52;;;;;;;20.82;79.41;93354.06;5052918;28;20210;-81
2021/08/05 10:07:20;;;;;;;2.83;0.80;;;;;;;20.12;81.72;93357.53;5052591;28;20702;-80
2021/08/05 10:09:57;;;;;;;1.38;0.80;;;;;;;19.47;82.17;93352.03;5052659;28;20701;-78
2021/08/05 10:12:31;;;;;;;0.70;0.70;;;;;;;19.46;82.68;93351.25;5052605;28;20685;-80
2021/08/05 10:15:13;;;;;;;1.23;0.80;;;;;;;19.65;83.54;93348.06;5053156;28;20210;-80
2021/08/05 10:17:40;;;;;;;0.95;0.70;;;;;;;19.39;83.67;93343.59;5049832;28;20195;-81
2021/08/05 10:20:11;;;;;;;0.70;0.65;;;;;;;19.50;82.89;93351.50;5054705;28;20203;-81
2021/08/05 10:22:38;;;;;;;3.10;0.60;;;;;;;19.27;84.19;93342.25;5056935;28;20195;-80
2021/08/05 10:25:06;;;;;;;0.50;0.50;;;;;;;19.53;82.16;93346.47;5056630;28;20203;-81
2021/08/05 10:27:35;;;;;;;0.57;0.50;;;;;;;19.81;83.18;93341.72;5056749;28;20227;-81
2021/08/05 10:30:02;;;;;;;0.85;0.52;;;;;;;19.94;80.60;93341.16;5056599;28;20203;-82
2021/08/05 10:32:33;;;;;;;0.70;0.50;;;;;;;20.34;77.84;93334.09;5056683;28;20290;-80
2021/08/05 10:35:00;;;;;;;0.68;0.47;;;;;;;20.41;76.07;93333.03;5056602;28;20239;-79
2021/08/05 10:37:27;;;;;;;0.82;0.60;;;;;;;20.50;78.92;93312.81;5056460;28;20203;-82
2021/08/05 10:39:54;;;;;;;2.53;0.70;;;;;;;20.76;79.17;93323.31;5056471;28;20196;-81
2021/08/05 10:42:21;;;;;;;0.80;0.60;;;;;;;21.10;82.69;93314.59;5056675;28;20210;-80
2021/08/05 10:44:51;;;;;;;1.30;0.60;;;;;;;20.29;78.48;93312.91;5056173;28;20234;-81
2021/08/05 10:47:20;;;;;;;0.50;0.50;;;;;;;19.82;83.86;93305.41;5071660;28;20227;-80
2021/08/05 10:49:48;;;;;;;1.80;0.60;;;;;;;20.02;81.83;93302.72;5076195;28;20203;-81
2021/08/05 10:52:41;;;;;;;1.23;0.65;;;;;;;19.87;82.55;93308.84;5075964;28;20211;-80
2021/08/05 10:55:23;;;;;;;1.60;0.60;;;;;;;19.92;79.89;93300.88;5076349;28;20281;-80
2021/08/05 10:58:28;;;;;;;1.13;0.60;;;;;;;19.95;79.36;93302.19;5076197;28;20286;-80
2021/08/05 11:01:01;;;;;;;0.60;0.50;;;;;;;20.62;83.03;93297.38;5075887;28;20231;-80
2021/08/05 11:03:47;;;;;;;0.45;0.45;;;;;;;21.24;75.59;93294.31;5076011;28;20199;-79
2021/08/05 11:06:32;;;;;;;0.50;0.50;;;;;;;21.13;80.36;93306.09;5075722;28;20585;-80
2021/08/05 11:09:33;;;;;;;0.77;0.63;;;;;;;20.86;79.54;93296.72;5075684;28;20705;-80
2021/08/05 11:12:36;;;;;;;1.30;0.70;;;;;;;21.19;73.41;93292.47;5075617;28;20932;-80
2021/08/05 11:15:05;;;;;;;0.55;0.50;;;;;;;21.31;75.26;93294.78;5075776;28;20216;-81
2021/08/05 11:17:33;;;;;;;4.47;0.50;;;;;;;21.31;81.69;93284.16;5075754;28;20202;-81
2021/08/05 11:20:17;;;;;;;0.50;0.50;;;;;;;21.55;72.33;93286.09;5075774;28;20206;-80
2021/08/05 11:22:45;;;;;;;0.40;0.40;;;;;;;21.89;68.20;93275.38;5075746;28;20195;-80
2021/08/05 11:25:12;;;;;;;1.45;0.55;;;;;;;21.96;73.71;93269.72;5075668;28;20278;-80
2021/08/05 11:27:44;;;;;;;0.57;0.50;;;;;;;22.73;77.31;93274.06;5075162;28;20222;-80
2021/08/05 11:30:42;;;;;;;0.25;0.25;;;;;;;23.93;71.00;93267.31;5075346;28;20198;-79
2021/08/05 11:33:48;;;;;;;0.70;0.60;;;;;;;23.79;64.99;93269.16;5075048;28;20677;-80